Time;durP1;ratioP1;P1;durP2;ratioP2;P2;SDS_P1;SDS_P2;PMS_P1;PMS_P2;Temp;Humidity;BMP_temperature;BMP_pressure;BME280_temperature;BME280_humidity;BME280_pressure;Samples;Min_cycle;Max_cycle;Signal;HPM_P1;HPM_P2
2022/02/08 00:01:38;;;;;;;18.75;4.40;;;7.60;78.30;;;;;;5068658;28;20387;-64
2022/02/08 00:04:04;;;;;;;16.88;4.57;;;7.60;78.50;;;;;;5073847;28;20063;-64
2022/02/08 00:06:44;;;;;;;17.23;4.78;;;7.60;78.60;;;;;;5069959;28;20435;-64
2022/02/08 00:09:11;;;;;;;18.23;4.85;;;7.60;78.80;;;;;;5068669;28;20557;-64
2022/02/08 00:11:37;;;;;;;16.55;4.60;;;7.60;79.10;;;;;;5074154;28;20025;-64
2022/02/08 00:14:04;;;;;;;19.67;5.20;;;7.60;79.10;;;;;;5078923;28;20028;-64
2022/02/08 00:16:30;;;;;;;15.75;5.28;;;7.60;79.70;;;;;;5067882;28;20036;-64
2022/02/08 00:18:56;;;;;;;28.30;7.28;;;7.60;79.90;;;;;;5073761;28;20032;-65
2022/02/08 00:21:22;;;;;;;27.25;5.78;;;7.60;80.30;;;;;;5069727;28;20075;-64
2022/02/08 00:23:48;;;;;;;22.33;6.22;;;7.60;80.80;;;;;;5069695;28;20024;-64
2022/02/08 00:26:13;;;;;;;18.52;5.70;;;7.60;81.50;;;;;;5064900;28;20032;-64
2022/02/08 00:28:39;;;;;;;19.83;6.55;;;7.60;82.40;;;;;;5068565;28;20052;-64
2022/02/08 00:31:05;;;;;;;21.95;6.25;;;7.50;83.00;;;;;;5069504;28;20050;-64
2022/02/08 00:33:31;;;;;;;22.17;7.28;;;7.50;82.90;;;;;;5069127;28;20024;-64
2022/02/08 00:35:56;;;;;;;19.45;6.82;;;7.50;84.00;;;;;;5070189;28;20052;-65
2022/02/08 00:38:22;;;;;;;21.25;6.30;;;7.50;84.80;;;;;;5069044;28;20055;-64
2022/02/08 00:40:49;;;;;;;18.25;6.75;;;7.50;84.70;;;;;;5069233;28;20063;-64
2022/02/08 00:43:24;;;;;;;21.63;6.60;;;7.40;84.80;;;;;;5072666;28;20040;-64
2022/02/08 00:46:15;;;;;;;26.55;6.90;;;7.50;84.90;;;;;;5070405;28;20045;-64
2022/02/08 00:48:41;;;;;;;23.40;7.70;;;7.50;85.30;;;;;;5068204;28;20039;-65
2022/02/08 00:51:09;;;;;;;22.42;7.55;;;7.40;85.70;;;;;;5069336;28;20024;-64
2022/02/08 00:53:35;;;;;;;22.10;7.47;;;7.40;85.90;;;;;;5068833;28;20116;-65
2022/02/08 00:56:00;;;;;;;18.77;7.30;;;7.40;85.90;;;;;;5073255;28;20402;-64
2022/02/08 00:58:26;;;;;;;20.98;7.47;;;7.40;86.10;;;;;;5078844;28;20032;-64
2022/02/08 01:00:52;;;;;;;20.77;7.25;;;7.40;86.00;;;;;;5084496;28;20101;-64
2022/02/08 01:03:18;;;;;;;22.88;8.30;;;7.50;85.90;;;;;;5081187;28;20032;-64
2022/02/08 01:05:49;;;;;;;28.05;8.48;;;7.40;86.00;;;;;;5069925;28;20574;-64
2022/02/08 01:08:15;;;;;;;23.67;8.07;;;7.50;86.10;;;;;;5077641;28;20554;-64
2022/02/08 01:10:42;;;;;;;24.52;8.48;;;7.50;86.20;;;;;;5082178;28;20013;-64
2022/02/08 01:13:09;;;;;;;22.23;8.25;;;7.50;86.40;;;;;;5068486;28;20024;-64
2022/02/08 01:15:36;;;;;;;19.25;8.40;;;7.50;86.40;;;;;;5070328;28;20048;-64
2022/02/08 01:18:03;;;;;;;24.20;8.70;;;7.50;86.40;;;;;;5075540;28;20097;-64
2022/02/08 01:20:39;;;;;;;25.45;9.52;;;7.50;86.60;;;;;;5071345;28;20024;-64
2022/02/08 01:23:08;;;;;;;22.05;9.10;;;7.50;86.60;;;;;;5086095;28;20032;-64
2022/02/08 01:30:59;;;;;;;22.67;9.95;;;7.50;87.60;;;;;;5083947;28;20112;-64
2022/02/08 01:38:51;;;;;;;31.00;12.70;;;7.50;88.00;;;;;;5075903;28;20060;-64
2022/02/08 01:47:14;;;;;;;27.98;14.40;;;7.50;88.90;;;;;;5068746;28;20043;-64
2022/02/08 01:50:01;;;;;;;27.48;14.60;;;7.50;89.20;;;;;;5075060;28;20024;-68
2022/02/08 01:52:27;;;;;;;26.38;13.00;;;7.50;89.70;;;;;;5069714;28;20090;-68
2022/02/08 01:54:55;;;;;;;29.23;15.15;;;7.60;89.70;;;;;;5077995;28;20394;-64
2022/02/08 01:57:21;;;;;;;26.30;14.38;;;7.50;90.00;;;;;;5092745;28;20036;-64
2022/02/08 01:59:47;;;;;;;32.08;14.95;;;7.60;90.10;;;;;;5080827;28;20085;-64
2022/02/08 02:02:12;;;;;;;28.50;17.13;;;7.50;90.20;;;;;;5072231;28;20033;-64
2022/02/08 02:04:38;;;;;;;35.45;19.33;;;7.60;90.40;;;;;;5074094;28;20101;-64
2022/02/08 02:07:04;;;;;;;27.23;16.38;;;7.60;90.60;;;;;;5072415;28;20032;-64
2022/02/08 02:09:30;;;;;;;27.45;17.63;;;7.70;90.80;;;;;;5076373;28;20039;-64
2022/02/08 02:11:57;;;;;;;37.25;20.35;;;7.60;90.50;;;;;;5092248;28;20032;-64
2022/02/08 02:14:23;;;;;;;26.50;16.40;;;7.60;90.60;;;;;;5088704;28;20022;-64
2022/02/08 02:19:15;;;;;;;26.98;18.10;;;7.70;90.70;;;;;;5088066;28;20481;-64
2022/02/08 02:21:40;;;;;;;31.83;20.05;;;7.70;90.80;;;;;;5074206;28;21256;-67
2022/02/08 02:24:06;;;;;;;26.65;18.50;;;7.70;90.90;;;;;;5075616;28;20021;-67
2022/02/08 02:26:32;;;;;;;26.90;17.60;;;7.70;91.00;;;;;;5074833;28;20111;-67
2022/02/08 02:28:58;;;;;;;26.92;18.67;;;7.70;91.00;;;;;;5081490;28;20104;-67
2022/02/08 02:31:23;;;;;;;26.83;19.05;;;7.70;91.00;;;;;;5070941;28;20098;-67
2022/02/08 02:33:50;;;;;;;28.48;19.70;;;7.80;91.00;;;;;;5074579;28;20461;-67
2022/02/08 02:36:16;;;;;;;33.53;21.75;;;7.80;91.10;;;;;;5089056;28;20054;-67
2022/02/08 02:38:42;;;;;;;38.42;22.48;;;7.80;91.20;;;;;;5089005;28;20474;-67
2022/02/08 02:41:07;;;;;;;32.65;21.80;;;7.80;91.20;;;;;;5080420;28;20064;-67
2022/02/08 02:43:33;;;;;;;35.80;23.05;;;7.80;91.20;;;;;;5079716;28;20024;-67
2022/02/08 02:46:01;;;;;;;32.13;22.98;;;7.80;91.20;;;;;;5076068;28;20370;-67
2022/02/08 02:48:28;;;;;;;42.10;24.98;;;7.80;91.30;;;;;;5078249;28;20348;-67
2022/02/08 02:50:54;;;;;;;38.28;24.00;;;7.90;91.30;;;;;;5071752;28;20031;-67
2022/02/08 02:53:23;;;;;;;44.38;28.50;;;7.90;91.20;;;;;;5082880;28;20039;-67
2022/02/08 02:55:49;;;;;;;39.78;24.77;;;7.90;91.30;;;;;;5080707;28;20024;-67
2022/02/08 02:58:16;;;;;;;52.38;28.52;;;7.90;91.20;;;;;;5083028;28;20024;-68
2022/02/08 03:01:32;;;;;;;38.45;25.70;;;8.00;91.30;;;;;;5071312;28;20061;-67
2022/02/08 03:17:33;;;;;;;42.17;29.58;;;8.00;91.60;;;;;;5053523;28;20044;-67
2022/02/08 03:19:59;;;;;;;56.20;31.27;;;8.00;91.50;;;;;;5082804;28;20061;-67
2022/02/08 03:22:25;;;;;;;47.42;31.42;;;8.10;91.70;;;;;;5090815;28;20024;-67
2022/02/08 03:24:51;;;;;;;54.80;34.13;;;8.10;91.70;;;;;;5075127;28;20093;-67
2022/02/08 03:27:17;;;;;;;53.03;32.75;;;8.10;91.80;;;;;;5070263;28;20029;-67
2022/02/08 03:29:45;;;;;;;50.60;32.90;;;8.20;91.80;;;;;;5088316;28;20035;-67
2022/02/08 03:32:11;;;;;;;53.03;33.47;;;8.20;92.10;;;;;;5089392;28;20135;-67
2022/02/08 03:34:37;;;;;;;57.75;34.78;;;8.20;91.90;;;;;;5071410;28;20143;-67
2022/02/08 03:37:03;;;;;;;50.95;34.67;;;8.20;91.90;;;;;;5069511;28;20119;-67
2022/02/08 03:39:36;;;;;;;71.32;37.50;;;8.20;92.00;;;;;;5090316;28;20091;-67
2022/02/08 03:42:39;;;;;;;54.45;34.97;;;8.20;92.00;;;;;;5090504;28;20036;-67
2022/02/08 03:44:57;;;;;;;60.08;36.15;;;8.20;91.90;;;;;;5064879;28;20048;-67
2022/02/08 03:47:22;;;;;;;59.78;37.78;;;8.30;92.00;;;;;;5068670;28;20089;-67
2022/02/08 03:49:49;;;;;;;48.03;32.80;;;8.30;92.00;;;;;;5068141;28;20475;-67
2022/02/08 03:52:15;;;;;;;62.28;36.63;;;8.30;92.00;;;;;;5071535;28;20564;-67
2022/02/08 03:54:40;;;;;;;56.78;33.65;;;8.30;92.00;;;;;;5069845;28;20032;-67
2022/02/08 03:57:09;;;;;;;49.38;33.17;;;8.40;92.00;;;;;;5071912;28;20120;-67
2022/02/08 03:59:35;;;;;;;58.38;35.40;;;8.40;92.00;;;;;;5055439;28;20153;-67
2022/02/08 04:07:16;;;;;;;50.15;34.03;;;8.40;92.10;;;;;;5073007;28;20408;-67
2022/02/08 04:09:43;;;;;;;49.88;31.45;;;8.50;92.10;;;;;;5068485;28;20033;-67
2022/02/08 04:12:36;;;;;;;54.97;32.63;;;8.50;92.10;;;;;;5065220;28;20016;-67
2022/02/08 04:31:25;;;;;;;47.95;28.67;;;8.60;92.10;;;;;;5090254;28;20372;-67
2022/02/08 04:34:09;;;;;;;41.28;26.13;;;8.60;92.10;;;;;;5080104;28;20044;-67
2022/02/08 04:39:24;;;;;;;42.60;26.55;;;8.70;92.10;;;;;;5060495;28;20037;-67
2022/02/08 04:42:03;;;;;;;41.78;25.40;;;8.70;92.10;;;;;;5050334;28;20536;-67
2022/02/08 04:49:35;;;;;;;41.45;24.75;;;8.70;92.10;;;;;;5067191;28;20039;-67
2022/02/08 04:52:04;;;;;;;36.78;24.17;;;8.70;92.10;;;;;;5058292;28;20032;-67
2022/02/08 04:57:12;;;;;;;45.58;27.25;;;8.80;92.10;;;;;;5051035;28;20051;-67
2022/02/08 05:00:05;;;;;;;43.15;25.83;;;8.80;92.20;;;;;;5068932;28;20032;-67
2022/02/08 05:43:12;;;;;;;35.13;21.67;;;8.90;91.90;;;;;;5079215;28;20170;-67
2022/02/08 05:46:03;;;;;;;31.83;21.85;;;8.90;91.90;;;;;;5071204;28;20060;-67
2022/02/08 05:48:31;;;;;;;37.75;22.70;;;8.90;91.80;;;;;;5070933;28;20044;-67
2022/02/08 05:51:14;;;;;;;34.35;20.80;;;8.90;91.80;;;;;;5071732;28;20024;-67
2022/02/08 05:53:45;;;;;;;31.52;20.52;;;8.90;91.70;;;;;;5091652;28;20028;-67
2022/02/08 05:56:12;;;;;;;28.35;21.08;;;8.90;91.70;;;;;;5073094;28;20040;-67
2022/02/08 05:58:43;;;;;;;29.83;19.73;;;8.90;91.70;;;;;;5092394;28;20051;-67
2022/02/08 06:01:19;;;;;;;28.95;18.13;;;8.90;91.70;;;;;;5084102;28;20463;-67
2022/02/08 06:03:44;;;;;;;30.58;19.70;;;8.90;91.60;;;;;;5070771;28;20135;-67
2022/02/08 06:06:10;;;;;;;32.17;19.33;;;8.90;91.60;;;;;;5080364;28;20111;-67
2022/02/08 06:08:35;;;;;;;29.25;19.05;;;8.90;91.60;;;;;;5090437;28;20126;-67
2022/02/08 06:11:05;;;;;;;31.33;18.77;;;8.90;91.60;;;;;;5073306;28;20028;-67
2022/02/08 06:13:31;;;;;;;25.08;18.35;;;8.90;91.50;;;;;;5082760;28;20028;-67
2022/02/08 06:16:03;;;;;;;27.25;18.20;;;8.90;91.50;;;;;;5072458;28;20032;-67
2022/02/08 06:18:30;;;;;;;27.45;18.23;;;8.90;91.50;;;;;;5067093;28;20048;-67
2022/02/08 06:20:57;;;;;;;28.20;18.00;;;9.00;91.50;;;;;;5072371;28;20386;-67
2022/02/08 06:23:23;;;;;;;26.65;19.08;;;8.90;91.50;;;;;;5079665;28;20065;-67
2022/02/08 06:25:48;;;;;;;34.10;19.50;;;8.90;91.50;;;;;;5085677;28;20125;-67
2022/02/08 06:28:16;;;;;;;27.40;18.05;;;8.90;91.80;;;;;;5072785;28;20016;-67
2022/02/08 06:30:41;;;;;;;24.55;16.85;;;8.90;91.50;;;;;;5071854;28;20028;-67
2022/02/08 06:33:07;;;;;;;26.75;16.58;;;8.90;91.50;;;;;;5087542;28;20032;-67
2022/02/08 06:35:34;;;;;;;25.58;16.90;;;8.90;91.50;;;;;;5092534;28;20024;-67
2022/02/08 06:38:01;;;;;;;23.92;17.45;;;9.00;91.50;;;;;;5071987;28;20040;-67
2022/02/08 06:40:32;;;;;;;23.95;17.15;;;9.00;91.50;;;;;;5077905;28;20028;-67
2022/02/08 06:42:59;;;;;;;24.52;16.60;;;8.90;91.40;;;;;;5085259;28;20478;-67
2022/02/08 06:45:25;;;;;;;22.65;15.73;;;9.00;91.40;;;;;;5069086;28;20048;-67
2022/02/08 06:47:52;;;;;;;24.25;15.70;;;9.00;91.40;;;;;;5072800;28;20039;-67
2022/02/08 06:50:25;;;;;;;29.48;14.70;;;9.00;91.40;;;;;;5064112;28;20028;-67
2022/02/08 06:52:51;;;;;;;24.52;14.57;;;8.90;91.30;;;;;;5070927;28;20667;-68
2022/02/08 06:55:18;;;;;;;22.02;14.13;;;9.00;91.40;;;;;;5090292;28;20505;-67
2022/02/08 06:57:52;;;;;;;21.70;13.98;;;9.00;91.30;;;;;;5069384;28;20481;-67
2022/02/08 07:00:28;;;;;;;24.10;13.93;;;9.00;91.30;;;;;;5073146;28;20429;-67
2022/02/08 07:02:54;;;;;;;22.40;13.30;;;9.00;91.30;;;;;;5060936;28;20079;-68
2022/02/08 07:05:19;;;;;;;23.15;13.80;;;9.00;91.30;;;;;;5065039;28;20060;-67
2022/02/08 07:07:45;;;;;;;18.08;12.80;;;9.00;91.20;;;;;;5062660;28;20056;-67
2022/02/08 07:10:11;;;;;;;21.00;12.88;;;9.00;91.20;;;;;;5067450;28;20094;-67
2022/02/08 07:12:37;;;;;;;20.35;11.38;;;8.90;91.20;;;;;;5070056;28;20024;-67
2022/02/08 07:15:08;;;;;;;21.92;12.23;;;9.00;91.20;;;;;;5079378;28;20039;-67
2022/02/08 07:17:34;;;;;;;24.25;13.43;;;9.00;91.10;;;;;;5081877;28;20021;-67
2022/02/08 07:20:00;;;;;;;19.98;11.65;;;9.00;91.10;;;;;;5073277;28;20078;-67
2022/02/08 07:22:25;;;;;;;23.30;13.70;;;9.00;91.10;;;;;;5070940;28;20039;-67
2022/02/08 07:24:51;;;;;;;21.38;13.05;;;9.00;91.10;;;;;;5076660;28;20474;-68
2022/02/08 07:27:17;;;;;;;20.48;13.02;;;9.00;91.10;;;;;;5069429;28;20025;-67
2022/02/08 07:29:50;;;;;;;24.85;12.32;;;9.00;91.10;;;;;;5069897;28;20033;-67
2022/02/08 07:32:16;;;;;;;20.23;12.70;;;9.00;91.10;;;;;;5075554;28;20454;-67
2022/02/08 07:34:47;;;;;;;20.23;11.75;;;9.00;91.10;;;;;;5067939;28;20100;-67
2022/02/08 07:37:33;;;;;;;17.63;11.13;;;9.00;91.00;;;;;;5069286;28;20115;-67
2022/02/08 07:40:04;;;;;;;19.45;10.75;;;9.10;91.00;;;;;;5071246;28;20352;-67
2022/02/08 07:42:29;;;;;;;23.40;11.45;;;9.10;91.00;;;;;;5081824;28;20476;-67
2022/02/08 07:44:55;;;;;;;20.13;10.80;;;9.10;91.00;;;;;;5070387;28;20043;-67
2022/02/08 07:47:21;;;;;;;22.77;10.50;;;9.10;91.00;;;;;;5073489;28;20035;-67
2022/02/08 07:49:47;;;;;;;23.27;10.43;;;9.10;90.90;;;;;;5070042;28;20078;-69
2022/02/08 07:52:12;;;;;;;16.60;8.48;;;9.10;90.90;;;;;;5079581;28;20027;-70
2022/02/08 07:54:39;;;;;;;19.83;8.50;;;9.20;90.80;;;;;;5072214;28;20059;-71
2022/02/08 07:57:05;;;;;;;15.70;7.88;;;9.20;90.80;;;;;;5070516;28;20058;-70
2022/02/08 07:59:31;;;;;;;15.88;7.10;;;9.20;90.80;;;;;;5063891;28;20062;-69
2022/02/08 08:01:57;;;;;;;19.88;6.88;;;9.20;90.70;;;;;;5076500;28;20028;-69
2022/02/08 08:04:22;;;;;;;13.45;6.00;;;9.20;90.70;;;;;;5068321;28;20032;-70
2022/02/08 08:06:48;;;;;;;16.67;5.95;;;9.30;90.60;;;;;;5069022;28;20033;-69
2022/02/08 08:09:14;;;;;;;18.67;5.97;;;9.30;90.60;;;;;;5064158;28;20021;-69
2022/02/08 08:11:43;;;;;;;17.25;5.20;;;9.30;90.50;;;;;;5068029;28;20406;-68
2022/02/08 08:14:11;;;;;;;11.95;4.50;;;9.30;90.40;;;;;;5068592;28;20134;-68
2022/02/08 08:21:31;;;;;;;13.77;4.55;;;9.30;90.30;;;;;;5070069;28;20040;-69
2022/02/08 08:23:57;;;;;;;11.73;4.78;;;9.30;90.20;;;;;;5088097;28;20024;-69
2022/02/08 08:26:23;;;;;;;16.73;3.88;;;9.40;90.10;;;;;;5087124;28;20029;-69
2022/02/08 08:28:49;;;;;;;10.25;2.88;;;9.40;90.00;;;;;;5068090;28;20032;-69
2022/02/08 08:31:15;;;;;;;14.02;3.88;;;9.40;90.00;;;;;;5059821;28;20016;-69
2022/02/08 08:33:41;;;;;;;14.02;3.13;;;9.50;90.00;;;;;;5059275;28;20036;-69
2022/02/08 08:36:07;;;;;;;12.77;3.55;;;9.50;89.90;;;;;;5060479;28;20028;-69
2022/02/08 08:38:34;;;;;;;10.98;2.97;;;9.50;89.80;;;;;;5068812;28;20037;-69
2022/02/08 08:53:58;;;;;;;10.20;2.85;;;9.70;88.50;;;;;;5061838;28;20029;-67
2022/02/08 08:56:24;;;;;;;10.07;2.80;;;9.70;88.20;;;;;;5057640;28;20076;-67
2022/02/08 08:59:11;;;;;;;12.68;2.83;;;9.70;88.10;;;;;;5057660;28;20083;-68
2022/02/08 09:01:37;;;;;;;13.02;3.08;;;9.80;87.70;;;;;;5057643;28;20571;-68
2022/02/08 09:04:08;;;;;;;11.95;2.50;;;9.80;87.50;;;;;;5061137;28;20159;-68
2022/02/08 09:06:36;;;;;;;11.25;2.20;;;9.80;87.20;;;;;;5054815;28;20072;-68
2022/02/08 09:09:06;;;;;;;10.20;2.30;;;9.80;87.30;;;;;;5059724;28;20033;-69
2022/02/08 09:14:13;;;;;;;11.93;2.83;;;9.90;86.90;;;;;;5062409;28;20468;-68
2022/02/08 09:16:50;;;;;;;11.70;2.38;;;10.00;86.40;;;;;;5059712;28;20037;-68
2022/02/08 09:30:03;;;;;;;11.55;2.15;;;10.20;85.50;;;;;;5062587;28;20413;-68
2022/02/08 09:32:53;;;;;;;11.93;2.65;;;10.30;85.40;;;;;;5055493;28;20029;-68
2022/02/08 09:35:16;;;;;;;10.50;2.00;;;10.30;84.90;;;;;;5063043;28;20130;-69
2022/02/08 09:37:43;;;;;;;12.95;2.30;;;10.40;84.60;;;;;;5061541;28;20029;-69
2022/02/08 09:40:11;;;;;;;10.43;1.83;;;10.50;84.50;;;;;;5070201;28;20479;-69
2022/02/08 09:42:41;;;;;;;10.35;2.05;;;10.50;84.10;;;;;;5054742;28;20094;-69
2022/02/08 09:45:12;;;;;;;7.95;2.22;;;10.70;84.00;;;;;;5059332;28;20028;-69
2022/02/08 09:47:50;;;;;;;8.25;2.00;;;10.80;83.50;;;;;;5064978;28;20036;-68
2022/02/08 09:50:27;;;;;;;6.50;1.73;;;10.90;83.20;;;;;;5062137;28;20024;-68
2022/02/08 09:52:58;;;;;;;9.18;2.03;;;11.00;82.20;;;;;;5062966;28;20049;-68
2022/02/08 09:55:26;;;;;;;8.80;2.08;;;11.10;82.50;;;;;;5056558;28;20037;-69
2022/02/08 09:57:52;;;;;;;13.77;1.92;;;11.20;82.00;;;;;;5057380;28;20032;-69
2022/02/08 10:00:19;;;;;;;7.50;2.15;;;11.20;81.90;;;;;;5065646;28;20024;-69
2022/02/08 10:02:45;;;;;;;10.45;1.88;;;11.20;81.70;;;;;;5057423;28;20033;-69
2022/02/08 10:05:13;;;;;;;13.25;2.75;;;11.30;81.50;;;;;;5068616;28;20399;-69
2022/02/08 10:08:19;;;;;;;10.43;2.10;;;11.30;80.80;;;;;;5062980;28;20844;-68
2022/02/08 10:10:45;;;;;;;10.05;1.80;;;11.40;81.10;;;;;;5048454;28;20163;-68
2022/02/08 10:13:44;;;;;;;9.48;2.10;;;11.40;80.60;;;;;;5045722;28;20033;-69
2022/02/08 10:21:44;;;;;;;9.65;2.03;;;11.30;80.10;;;;;;5044639;28;20037;-69
2022/02/08 10:24:12;;;;;;;7.65;1.83;;;11.20;80.40;;;;;;5047269;28;20405;-69
2022/02/08 10:29:38;;;;;;;5.05;1.67;;;11.20;80.50;;;;;;5049728;28;20020;-69
2022/02/08 10:37:50;;;;;;;8.65;1.95;;;11.10;80.00;;;;;;5053089;28;20078;-69
2022/02/08 10:40:38;;;;;;;8.63;1.58;;;11.10;79.70;;;;;;5061985;28;20364;-69
2022/02/08 10:43:07;;;;;;;8.32;2.63;;;11.10;80.50;;;;;;5031315;28;20396;-69
2022/02/08 10:45:36;;;;;;;7.63;1.98;;;11.10;80.30;;;;;;5040382;28;20129;-69
2022/02/08 10:48:08;;;;;;;7.38;2.03;;;11.10;80.20;;;;;;5041981;28;20025;-69
2022/02/08 10:50:38;;;;;;;15.80;2.28;;;11.10;80.40;;;;;;5038048;28;20120;-69
2022/02/08 10:53:06;;;;;;;10.35;1.88;;;11.10;80.20;;;;;;5032090;28;20036;-69
2022/02/08 10:55:45;;;;;;;8.65;2.30;;;11.10;80.40;;;;;;5041090;28;20500;-69
2022/02/08 11:03:17;;;;;;;8.65;1.55;;;11.10;79.90;;;;;;5044474;28;20060;-69
2022/02/08 11:06:04;;;;;;;8.13;1.80;;;11.20;80.00;;;;;;5030094;28;20079;-69
2022/02/08 11:14:29;;;;;;;11.55;1.88;;;11.20;79.90;;;;;;5034124;28;20037;-69
2022/02/08 11:22:30;;;;;;;8.60;1.48;;;11.30;79.40;;;;;;5042843;28;20091;-69
2022/02/08 11:25:15;;;;;;;8.63;1.70;;;11.30;79.20;;;;;;5042453;28;20159;-69
2022/02/08 11:27:48;;;;;;;7.53;1.17;;;11.30;79.20;;;;;;5053416;28;20051;-69
2022/02/08 11:30:19;;;;;;;9.25;1.50;;;11.30;79.30;;;;;;5048126;28;20025;-69
2022/02/08 12:04:55;;;;;;;6.65;1.38;;;11.70;78.40;;;;;;5087931;28;20324;-69
2022/02/08 12:07:21;;;;;;;8.95;2.10;;;11.70;78.40;;;;;;5103166;28;20036;-68
2022/02/08 12:10:07;;;;;;;7.45;1.42;;;11.70;77.70;;;;;;5063609;28;20548;-64
2022/02/08 12:36:31;;;;;;;7.65;1.92;;;11.80;76.90;;;;;;5063887;28;20051;-66
2022/02/08 12:55:51;;;;;;;7.13;1.52;;;11.90;75.80;;;;;;5125408;28;20048;-65
2022/02/08 12:58:48;;;;;;;6.07;1.40;;;11.90;75.30;;;;;;5052807;28;20869;-64
2022/02/08 13:04:03;;;;;;;6.27;1.33;;;12.00;75.40;;;;;;5060259;28;20540;-64
2022/02/08 13:14:26;;;;;;;4.95;1.40;;;12.10;75.50;;;;;;5063918;28;20535;-64
2022/02/08 14:19:45;;;;;;;6.45;1.38;;;11.90;75.70;;;;;;5022767;28;20538;-65
2022/02/08 14:22:16;;;;;;;5.28;1.08;;;11.90;75.50;;;;;;5030011;28;20033;-65
2022/02/08 14:30:19;;;;;;;6.32;1.42;;;12.10;75.20;;;;;;5034945;28;20087;-65
2022/02/08 14:33:00;;;;;;;6.82;2.15;;;12.10;75.00;;;;;;5032046;28;20027;-65
2022/02/08 14:57:29;;;;;;;4.15;1.15;;;12.00;75.00;;;;;;5034919;28;20064;-65
2022/02/08 15:05:32;;;;;;;5.97;1.52;;;12.00;74.90;;;;;;5032982;28;20043;-65
2022/02/08 15:08:36;;;;;;;8.00;1.60;;;12.00;74.90;;;;;;5028275;28;20106;-65
2022/02/08 15:10:53;;;;;;;6.60;1.67;;;12.00;74.80;;;;;;5028280;28;20037;-65
2022/02/08 15:13:23;;;;;;;6.72;1.35;;;12.00;74.70;;;;;;5039213;28;20171;-65
2022/02/08 15:18:15;;;;;;;6.72;1.50;;;12.00;74.40;;;;;;5029583;28;20037;-65
2022/02/08 15:20:40;;;;;;;6.80;1.60;;;12.00;74.50;;;;;;5031600;28;20075;-66
2022/02/08 15:23:10;;;;;;;6.65;1.25;;;12.00;74.30;;;;;;5029964;28;20107;-65
2022/02/08 15:25:36;;;;;;;9.18;1.83;;;12.00;74.60;;;;;;5028101;28;20475;-65
2022/02/08 15:28:02;;;;;;;8.00;1.35;;;12.00;74.60;;;;;;5031015;28;20037;-66
2022/02/08 15:30:33;;;;;;;3.05;0.98;;;12.00;74.40;;;;;;5034545;28;20103;-65
2022/02/08 15:33:00;;;;;;;7.07;1.45;;;12.00;75.00;;;;;;5040445;28;20103;-65
2022/02/08 15:35:26;;;;;;;3.90;0.98;;;12.00;74.50;;;;;;5043330;28;20260;-65
2022/02/08 15:37:52;;;;;;;4.32;1.17;;;12.00;74.40;;;;;;5024917;28;20126;-66
2022/02/08 15:40:23;;;;;;;9.25;1.63;;;11.90;74.50;;;;;;5034223;28;20049;-65
2022/02/08 15:42:49;;;;;;;5.70;1.02;;;11.90;74.20;;;;;;5024779;28;20030;-65
2022/02/08 15:45:32;;;;;;;5.68;1.13;;;11.90;74.30;;;;;;5025015;28;20120;-65
2022/02/08 15:48:00;;;;;;;8.60;1.40;;;11.90;74.50;;;;;;5030149;28;20045;-65
2022/02/08 15:50:45;;;;;;;6.07;1.30;;;11.90;74.30;;;;;;5032026;28;20030;-65
2022/02/08 15:53:31;;;;;;;6.30;1.35;;;11.90;74.30;;;;;;5021291;28;20459;-65
2022/02/08 16:08:44;;;;;;;4.85;1.00;;;11.80;73.80;;;;;;5026946;28;20045;-66
2022/02/08 16:18:21;;;;;;;6.43;1.45;;;11.70;73.30;;;;;;5061191;28;20369;-69
2022/02/08 16:48:56;;;;;;;6.18;1.33;;;11.70;74.30;;;;;;5052195;28;20435;-70
2022/02/08 16:53:10;;;;;;;6.53;1.55;;;11.70;74.90;;;;;;5049293;28;20412;-71
2022/02/08 16:55:48;;;;;;;4.25;1.70;;;11.70;75.10;;;;;;5043548;28;20520;-71
2022/02/08 17:00:47;;;;;;;9.80;2.00;;;11.60;75.50;;;;;;5045486;28;20166;-70
2022/02/08 17:03:13;;;;;;;7.82;1.52;;;11.60;75.60;;;;;;5043080;28;20037;-71
2022/02/08 17:05:39;;;;;;;7.80;1.40;;;11.60;75.60;;;;;;5041207;28;20075;-71
2022/02/08 17:08:05;;;;;;;6.53;1.23;;;11.60;75.60;;;;;;5042899;28;20068;-70
2022/02/08 17:10:37;;;;;;;3.35;1.63;;;11.60;75.70;;;;;;5043218;28;20045;-70
2022/02/08 17:47:54;;;;;;;7.38;1.65;;;11.50;76.30;;;;;;5037945;28;20467;-62
2022/02/08 17:50:20;;;;;;;5.68;1.48;;;11.50;76.40;;;;;;5027272;28;20037;-64
2022/02/08 17:52:47;;;;;;;3.83;1.48;;;11.50;76.40;;;;;;5023415;28;20129;-64
2022/02/08 17:55:15;;;;;;;5.45;1.70;;;11.50;76.60;;;;;;5029365;28;20041;-64
2022/02/08 17:57:41;;;;;;;8.15;2.45;;;11.50;76.60;;;;;;5024683;28;20508;-64
2022/02/08 18:00:10;;;;;;;6.22;1.80;;;11.50;76.60;;;;;;5030257;28;20033;-64
2022/02/08 18:02:36;;;;;;;12.50;1.80;;;11.50;76.40;;;;;;5027917;28;20022;-63
2022/02/08 18:05:02;;;;;;;5.97;1.70;;;11.50;76.30;;;;;;5026857;28;20029;-63
2022/02/08 18:07:51;;;;;;;8.25;1.73;;;11.50;76.30;;;;;;5026507;28;20622;-63
2022/02/08 18:10:21;;;;;;;4.88;1.58;;;11.40;76.00;;;;;;5024397;28;20492;-64
2022/02/08 18:12:50;;;;;;;5.47;1.50;;;11.40;76.00;;;;;;5030934;28;20051;-63
2022/02/08 18:15:15;;;;;;;11.80;2.47;;;11.40;76.10;;;;;;5025945;28;20030;-63
2022/02/08 18:17:48;;;;;;;5.50;1.48;;;11.40;75.80;;;;;;5026217;28;20061;-63
2022/02/08 18:23:15;;;;;;;6.93;1.50;;;11.40;75.80;;;;;;5029337;28;19988;-63
2022/02/08 18:25:54;;;;;;;5.85;1.45;;;11.30;75.90;;;;;;5027927;28;20452;-63
2022/02/08 18:28:35;;;;;;;6.80;1.70;;;11.30;76.00;;;;;;5028988;28;20029;-63
2022/02/08 18:52:53;;;;;;;7.07;2.45;;;11.20;76.50;;;;;;5027811;28;20115;-64
2022/02/08 19:09:03;;;;;;;7.88;3.20;;;11.10;77.50;;;;;;5026582;28;20030;-63
2022/02/08 19:14:44;;;;;;;7.38;2.70;;;11.10;77.70;;;;;;5027652;28;20079;-63
2022/02/08 19:17:12;;;;;;;7.20;3.17;;;11.00;77.90;;;;;;5026034;28;20057;-63
2022/02/08 19:22:06;;;;;;;6.82;3.33;;;11.10;78.00;;;;;;5026110;28;20483;-63
2022/02/08 19:24:32;;;;;;;7.93;3.33;;;11.10;77.90;;;;;;5026913;28;20056;-63
2022/02/08 19:26:59;;;;;;;7.90;3.42;;;11.10;78.00;;;;;;5025933;28;20033;-63
2022/02/08 19:29:26;;;;;;;12.73;3.38;;;11.00;77.90;;;;;;5025956;28;20056;-63
2022/02/08 19:31:53;;;;;;;8.35;3.10;;;11.00;78.00;;;;;;5027140;28;20025;-63
2022/02/08 19:34:19;;;;;;;7.55;3.60;;;11.00;78.00;;;;;;5037507;28;20539;-63
2022/02/08 19:36:46;;;;;;;6.75;3.10;;;11.00;78.00;;;;;;5025998;28;20036;-63
2022/02/08 19:39:13;;;;;;;6.88;3.25;;;11.00;78.10;;;;;;5027918;28;20034;-63
2022/02/08 19:41:38;;;;;;;6.65;3.35;;;11.00;78.20;;;;;;5027409;28;20029;-63
2022/02/08 19:44:07;;;;;;;6.60;3.30;;;11.00;78.20;;;;;;5027704;28;20111;-62
2022/02/08 19:46:33;;;;;;;5.90;3.63;;;11.00;78.20;;;;;;5026393;28;20037;-63
2022/02/08 19:48:59;;;;;;;6.38;3.60;;;11.00;78.20;;;;;;5028037;28;20022;-63
2022/02/08 19:51:25;;;;;;;7.88;3.72;;;11.00;78.20;;;;;;5027362;28;20492;-63
2022/02/08 19:53:52;;;;;;;8.82;3.35;;;11.00;78.10;;;;;;5030922;28;20379;-63
2022/02/08 19:56:25;;;;;;;9.13;3.53;;;11.00;78.10;;;;;;5031178;28;20531;-63
2022/02/08 19:58:55;;;;;;;6.40;3.38;;;11.00;78.20;;;;;;5029528;28;20029;-63
2022/02/08 20:01:33;;;;;;;7.97;4.07;;;11.00;78.20;;;;;;5034767;28;20033;-63
2022/02/08 20:06:27;;;;;;;8.25;4.25;;;11.10;78.00;;;;;;5027098;28;20029;-63
2022/02/08 20:08:54;;;;;;;5.65;3.95;;;11.00;78.00;;;;;;5026928;28;20079;-64
2022/02/08 20:11:21;;;;;;;10.15;4.72;;;11.00;78.10;;;;;;5032255;28;20028;-64
2022/02/08 20:13:56;;;;;;;5.63;3.75;;;11.10;78.00;;;;;;5030518;28;20038;-64
2022/02/08 20:16:30;;;;;;;6.30;3.92;;;11.10;78.10;;;;;;5036679;28;20045;-63
2022/02/08 20:19:00;;;;;;;6.97;4.45;;;11.10;78.20;;;;;;5026277;28;20491;-63
2022/02/08 20:21:27;;;;;;;8.95;4.93;;;11.10;78.00;;;;;;5055934;28;20473;-63
2022/02/08 20:23:55;;;;;;;6.47;4.40;;;11.10;78.00;;;;;;5027373;28;20120;-63
2022/02/08 20:26:26;;;;;;;8.77;4.82;;;11.10;78.00;;;;;;5031094;28;20075;-63
2022/02/08 20:28:55;;;;;;;7.15;4.18;;;11.10;78.00;;;;;;5028192;28;20712;-63
2022/02/08 20:31:21;;;;;;;9.43;4.93;;;11.10;78.00;;;;;;5032583;28;20025;-63
2022/02/08 20:33:47;;;;;;;11.15;5.90;;;11.10;77.90;;;;;;5033964;28;20496;-63
2022/02/08 20:36:15;;;;;;;12.10;5.68;;;11.10;77.90;;;;;;5040463;28;20037;-63
2022/02/08 20:38:41;;;;;;;8.60;6.00;;;11.10;77.80;;;;;;5026968;28;20064;-63
2022/02/08 20:41:07;;;;;;;7.95;5.70;;;11.10;77.80;;;;;;5030627;28;20539;-63
2022/02/08 20:43:36;;;;;;;9.70;5.78;;;11.10;77.90;;;;;;5029093;28;20121;-63
2022/02/08 20:46:06;;;;;;;12.82;7.00;;;11.10;77.70;;;;;;5028143;28;20455;-63
2022/02/08 20:48:32;;;;;;;9.88;5.75;;;11.10;77.70;;;;;;5038050;28;20092;-62
2022/02/08 20:51:01;;;;;;;7.93;6.20;;;11.10;77.80;;;;;;5028125;28;20026;-63
2022/02/08 20:56:26;;;;;;;9.63;6.85;;;11.00;78.20;;;;;;5045404;28;20048;-62
2022/02/08 21:01:30;;;;;;;10.60;6.60;;;11.00;77.80;;;;;;5028499;28;20037;-63
2022/02/08 21:04:04;;;;;;;10.30;6.22;;;11.00;77.70;;;;;;5037738;28;20033;-63